M I D A S
Marine Information and Data Acquisition System
Tripno 2022 of the Zeeleeuw from 2010-09-07 06:20:03 to 2010-09-07 10:14:17
Back to CruiseResearch ActivitiesStationsMapUnderway DataData graphs

EquipmentUnitsComment
TimeDGPSUTC
LatitudeDGPSDM.mWGS84
LongitudeDGPSDM.mWGS84
TemperatureSBE03/SBE38deg celciusITS90
ConductivitySBE21S/mITS90
SalinitySBE21 Practical Salinity Units
ChlorophylAChelsea fluorimeterg/lCalibrated in Aceton
Missing or incorrect values are displayed as -999
Sea surface data collected by the RV Zeeleeuw from 2010-09-07 06:20:47 to 2010-09-07 10:14:16
Time Latitude Longitude Temperature Conductivity Salinity ChlorophylA
2010-09-07 06:21:52 51°13.676 2°55.896 20.4803 0.326739 2.054381 -0.861272
2010-09-07 06:22:52 51°13.689 2°55.789 20.5106 0.326739 2.054455 -0.861272
2010-09-07 06:23:52 51°13.686 2°55.733 20.519 0.326739 2.054492 -0.896096
2010-09-07 06:24:51 51°13.701 2°55.752 18.0219 2.227926 15.204479 -0.408559
2010-09-07 06:25:50 51°13.758 2°55.701 17.628 4.024921 30.202075 0.35757
2010-09-07 06:26:49 51°13.865 2°55.606 17.5312 3.985469 30.06981 0.35757
2010-09-07 06:27:48 51°14.001 2°55.508 17.4731 3.922916 29.606822 0.078977
2010-09-07 06:28:48 51°14.149 2°55.399 17.4597 3.952875 29.896537 0.009329
2010-09-07 06:29:48 51°14.295 2°55.271 17.3718 3.958149 29.963504 0.113802
2010-09-07 06:30:48 51°14.446 2°55.125 17.3427 3.978088 30.183576 0.113802
2010-09-07 06:31:48 51°14.613 2°54.929 17.2893 4.015539 30.530391 0.113802
2010-09-07 06:32:48 51°14.786 2°54.714 17.2951 4.032841 30.696869 0.253098
2010-09-07 06:33:52 51°14.966 2°54.479 17.2965 4.061537 30.948171 0.322746
2010-09-07 06:34:51 51°15.131 2°54.27 17.2945 4.067023 30.985828 0.287922
2010-09-07 06:35:50 51°15.302 2°54.062 17.2971 4.075147 31.053143 0.113802
2010-09-07 06:36:49 51°15.473 2°53.85 17.2882 4.076202 31.078349 0.044153
2010-09-07 06:37:48 51°15.643 2°53.639 17.2886 4.085909 31.163104 -0.025495
2010-09-07 06:38:48 51°15.825 2°53.447 17.2909 4.090973 31.205042 -0.060319
2010-09-07 06:39:48 51°16.004 2°53.252 17.2896 4.098253 31.265268 -0.060319
2010-09-07 06:40:48 51°16.181 2°53.059 17.302 4.109859 31.361746 -0.060319
2010-09-07 06:41:48 51°16.362 2°52.876 17.3136 4.113235 31.379724 -0.164791
2010-09-07 06:42:48 51°16.552 2°52.728 17.3059 4.111968 31.358778 -0.164791
2010-09-07 06:43:48 51°16.741 2°52.582 17.3128 4.111547 31.368191 -0.129967
2010-09-07 06:44:48 51°16.924 2°52.434 17.3205 4.117877 31.403371 -0.095143
2010-09-07 06:45:48 51°17.104 2°52.275 17.3444 4.120092 31.418253 -0.060319
2010-09-07 06:46:48 51°17.292 2°52.126 17.3564 4.127056 31.467277 0.009329
2010-09-07 06:47:48 51°17.479 2°51.986 17.3677 4.130749 31.487909 -0.025495
2010-09-07 06:48:48 51°17.664 2°51.843 17.3681 4.141722 31.57156 -0.060319
2010-09-07 06:49:48 51°17.851 2°51.699 17.3752 4.144465 31.587498 -0.095143
2010-09-07 06:50:48 51°18.04 2°51.552 17.39 4.147841 31.6145 -0.129967
2010-09-07 06:51:48 51°18.23 2°51.398 17.3947 4.154594 31.666796 -0.129967
2010-09-07 06:52:48 51°18.399 2°51.216 17.393 4.162929 31.73883 -0.199615
2010-09-07 06:53:48 51°18.501 2°51.093 17.3743 4.166517 31.771064 -0.269263
2010-09-07 06:54:48 51°18.535 2°51.022 17.3657 4.16409 31.761273 -0.269263
2010-09-07 06:55:48 51°18.526 2°50.992 17.3604 4.162086 31.744784 -0.304087
2010-09-07 06:56:48 51°18.516 2°50.973 17.3614 4.164724 31.777528 -0.304087
2010-09-07 06:57:48 51°18.506 2°50.954 17.3579 4.161242 31.740457 -0.304087
2010-09-07 06:58:48 51°18.496 2°50.931 17.3526 4.160714 31.743396 -0.338911
2010-09-07 06:59:48 51°18.487 2°50.908 17.3508 4.162719 31.75703 -0.304087
2010-09-07 07:00:48 51°18.479 2°50.885 17.35 4.158815 31.738658 -0.338911
2010-09-07 07:01:48 51°18.47 2°50.86 17.3478 4.15987 31.746499 -0.304087
2010-09-07 07:02:48 51°18.463 2°50.835 17.346 4.160292 31.743804 -0.338911
2010-09-07 07:03:48 51°18.454 2°50.809 17.3455 4.158287 31.732452 -0.269263
2010-09-07 07:04:48 51°18.446 2°50.783 17.344 4.161453 31.754828 -0.338911
2010-09-07 07:05:48 51°18.438 2°50.756 17.3435 4.159448 31.743477 -0.338911
2010-09-07 07:06:48 51°18.431 2°50.729 17.3451 4.166306 31.79043 -0.269263
2010-09-07 07:07:48 51°18.423 2°50.7 17.3463 4.161769 31.76496 -0.269263
2010-09-07 07:08:48 51°18.416 2°50.671 17.3457 4.158393 31.725922 -0.304087
2010-09-07 07:09:48 51°18.408 2°50.642 17.3433 4.166517 31.793944 -0.304087
2010-09-07 07:10:48 51°18.401 2°50.613 17.3488 4.16293 31.77141 -0.304087
2010-09-07 07:11:48 51°18.394 2°50.581 17.3521 4.165357 31.777768 -0.304087
2010-09-07 07:12:48 51°18.406 2°50.496 17.3681 4.164091 31.777288 -0.304087
2010-09-07 07:13:48 51°18.492 2°50.442 17.3822 4.16926 31.797266 -0.234439
2010-09-07 07:14:48 51°18.648 2°50.375 17.3711 4.173376 31.832288 -0.304087
2010-09-07 07:15:48 51°18.847 2°50.317 17.3902 4.169155 31.788933 -0.304087
2010-09-07 07:16:48 51°19.05 2°50.269 17.4255 4.184138 31.902098 -0.269263
2010-09-07 07:17:48 51°19.255 2°50.228 17.4691 4.196378 31.987868 -0.234439
2010-09-07 07:18:48 51°19.461 2°50.187 17.4809 4.209461 32.072708 -0.164791
2010-09-07 07:19:48 51°19.669 2°50.15 17.4926 4.213682 32.098238 -0.199615
2010-09-07 07:20:48 51°19.878 2°50.11 17.5169 4.222229 32.151317 -0.234439
2010-09-07 07:21:48 51°20.086 2°50.063 17.5321 4.23162 32.214418 -0.199615
2010-09-07 07:22:48 51°20.294 2°50.018 17.5119 4.234363 32.231963 -0.199615
2010-09-07 07:23:48 51°20.503 2°49.97 17.4902 4.223601 32.158943 -0.129967
2010-09-07 07:24:48 51°20.712 2°49.921 17.4697 4.215581 32.106325 -0.095143
2010-09-07 07:25:48 51°20.922 2°49.873 17.4482 4.212943 32.093685 -0.129967
2010-09-07 07:26:48 51°21.131 2°49.829 17.4395 4.203553 32.033383 -0.199615
2010-09-07 07:27:48 51°21.34 2°49.784 17.4516 4.202181 32.027466 -0.234439
2010-09-07 07:28:48 51°21.548 2°49.735 17.5842 4.21632 32.133935 -0.234439
2010-09-07 07:29:48 51°21.753 2°49.69 17.6324 4.272246 32.501763 -0.234439
2010-09-07 07:30:48 51°21.957 2°49.647 17.6424 4.280265 32.537917 -0.199615
2010-09-07 07:31:48 51°22.163 2°49.601 17.6467 4.285225 32.573056 -0.234439
2010-09-07 07:32:48 51°22.371 2°49.567 17.6847 4.295989 32.662144 -0.234439
2010-09-07 07:33:48 51°22.574 2°49.502 17.7088 4.317939 32.812929 -0.199615
2010-09-07 07:34:48 51°22.776 2°49.432 17.7187 4.325642 32.866049 -0.129967
2010-09-07 07:35:48 51°22.971 2°49.348 17.7249 4.335351 32.939699 -0.164791
2010-09-07 07:36:48 51°23.163 2°49.257 17.7217 4.334718 32.935496 -0.164791
2010-09-07 07:37:48 51°23.307 2°49.183 17.7104 4.335034 32.931726 -0.095143
2010-09-07 07:38:48 51°23.404 2°49.12 17.6987 4.331763 32.922142 -0.095143
2010-09-07 07:39:48 51°23.488 2°49.062 17.6893 4.328492 32.8967 -0.129967
2010-09-07 07:40:48 51°23.533 2°49.002 17.6851 4.322582 32.852953 -0.129967
2010-09-07 07:41:48 51°23.528 2°48.972 17.7091 4.326909 32.888534 -0.129967
2010-09-07 07:42:48 51°23.515 2°48.956 17.7305 4.333557 32.926224 -0.025495
2010-09-07 07:43:48 51°23.502 2°48.94 17.7371 4.342633 32.992137 0.044153
2010-09-07 07:44:48 51°23.49 2°48.923 17.7377 4.34411 33.000568 0.009329
2010-09-07 07:45:48 51°23.48 2°48.906 17.7177 4.341472 32.972289 -0.025495
2010-09-07 07:46:48 51°23.468 2°48.885 17.7115 4.336301 32.94659 -0.060319
2010-09-07 07:47:48 51°23.458 2°48.862 17.7029 4.330075 32.90193 -0.060319
2010-09-07 07:48:48 51°23.451 2°48.839 17.7091 4.326381 32.869978 -0.129967
2010-09-07 07:49:48 51°23.445 2°48.813 17.7156 4.331974 32.912781 -0.095143
2010-09-07 07:50:48 51°23.472 2°48.774 17.7639 4.329969 32.89165 -0.025495
2010-09-07 07:51:48 51°23.61 2°48.721 17.7927 4.351075 33.03147 0.113802
2010-09-07 07:52:48 51°23.808 2°48.68 17.8022 4.356457 33.044798 0.218274
2010-09-07 07:53:48 51°24.01 2°48.639 17.8489 4.356245 33.01835 0.148626
2010-09-07 07:54:50 51°24.219 2°48.595 17.8443 4.358567 33.022184 0.18345
2010-09-07 07:56:30 51°24.557 2°48.565 17.8297 4.355823 33.020053 0.218274
2010-09-07 07:57:31 51°24.764 2°48.552 17.8496 4.357828 33.03646 0.287922
2010-09-07 07:58:31 51°24.968 2°48.549 17.8387 4.3592 33.04985 0.287922
2010-09-07 07:59:31 51°25.17 2°48.553 17.8488 4.362683 33.066444 0.287922
2010-09-07 08:00:31 51°25.374 2°48.561 17.8841 4.363949 33.076001 0.322746
2010-09-07 08:01:31 51°25.576 2°48.566 17.8672 4.378408 33.186766 0.287922
2010-09-07 08:02:31 51°25.751 2°48.567 17.8595 4.384529 33.217421 0.218274
2010-09-07 08:03:31 51°25.858 2°48.564 17.8684 4.387484 33.258983 0.18345
2010-09-07 08:04:31 51°25.941 2°48.546 17.851 4.390334 33.290233 0.078977
2010-09-07 08:05:31 51°25.976 2°48.501 17.858 4.397405 33.35139 0.078977
2010-09-07 08:06:31 51°25.968 2°48.477 17.8524 4.3954 33.345041 0.044153
2010-09-07 08:07:31 51°25.959 2°48.46 17.8673 4.399199 33.355355 0.078977
2010-09-07 08:08:31 51°25.95 2°48.445 17.8668 4.393922 33.310017 0.113802
2010-09-07 08:09:31 51°25.939 2°48.433 17.855 4.401626 33.382461 0.078977
2010-09-07 08:10:31 51°25.929 2°48.423 17.8634 4.399938 33.369914 0.078977
2010-09-07 08:11:31 51°25.918 2°48.411 17.8659 4.39751 33.350508 0.078977
2010-09-07 08:12:31 51°25.906 2°48.4 17.8596 4.397088 33.341599 0.078977
2010-09-07 08:13:31 51°25.91 2°48.381 17.8632 4.396982 33.34248 0.113802
2010-09-07 08:14:31 51°26.025 2°48.329 17.864 4.396877 33.347506 0.078977
2010-09-07 08:15:31 51°26.218 2°48.253 17.8624 4.403209 33.391147 0.18345
2010-09-07 08:16:32 51°26.42 2°48.176 17.8667 4.402048 33.387821 0.18345
2010-09-07 08:17:32 51°26.62 2°48.103 17.8725 4.404265 33.395949 0.113802
2010-09-07 08:18:32 51°26.819 2°48.008 17.9133 4.410386 33.442529 0.148626
2010-09-07 08:19:32 51°27.014 2°47.88 17.8894 4.410597 33.434232 0.18345
2010-09-07 08:20:32 51°27.201 2°47.716 17.8866 4.407747 33.416592 0.148626
2010-09-07 08:21:32 51°27.38 2°47.525 17.9029 4.417457 33.494193 0.148626
2010-09-07 08:22:32 51°27.562 2°47.339 17.906 4.41714 33.48616 0.148626
2010-09-07 08:23:32 51°27.745 2°47.154 17.92 4.423473 33.529163 0.18345
2010-09-07 08:24:32 51°27.93 2°46.968 17.8937 4.426111 33.559277 0.253098
2010-09-07 08:25:32 51°28.112 2°46.779 17.8791 4.432444 33.61837 0.18345
2010-09-07 08:26:32 51°28.291 2°46.59 17.872 4.444476 33.736666 -0.060319
2010-09-07 08:27:32 51°28.466 2°46.393 17.8499 4.454292 33.819459 -0.060319
2010-09-07 08:28:32 51°28.63 2°46.201 17.8418 4.456298 33.85634 -0.060319
2010-09-07 08:29:32 51°28.699 2°46.042 17.8386 4.46242 33.916838 -0.025495
2010-09-07 08:30:32 51°28.696 2°45.985 17.8276 4.458937 33.896849 -0.025495
2010-09-07 08:31:35 51°28.689 2°45.981 17.8297 4.459148 33.893824 0.009329
2010-09-07 08:32:35 51°28.683 2°45.974 17.8211 4.457881 33.892087 0.009329
2010-09-07 08:33:35 51°28.675 2°45.968 17.8166 4.456404 33.888554 0.009329
2010-09-07 08:34:33 51°28.667 2°45.96 17.8211 4.460415 33.91485 0.009329
2010-09-07 08:35:33 51°28.657 2°45.953 17.8278 4.459359 33.910692 0.009329
2010-09-07 08:36:32 51°28.648 2°45.946 17.8158 4.456826 33.881299 0.009329
2010-09-07 08:37:32 51°28.64 2°45.942 17.8228 4.460942 33.925978 0.009329
2010-09-07 08:38:32 51°28.631 2°45.939 17.82 4.460731 33.916941 -0.025495
2010-09-07 08:39:32 51°28.63 2°45.909 17.8196 4.459254 33.907381 -0.025495
2010-09-07 08:40:32 51°28.6 2°45.836 17.8173 4.459676 33.910371 0.009329
2010-09-07 08:41:32 51°28.509 2°45.815 17.817 4.458198 33.904429 0.009329
2010-09-07 08:42:32 51°28.333 2°45.877 17.8202 4.462103 33.931033 -0.025495
2010-09-07 08:43:32 51°28.116 2°45.962 17.8319 4.461048 33.911193 -0.025495
2010-09-07 08:44:32 51°27.902 2°46.056 17.843 4.461575 33.913272 -0.129967
2010-09-07 08:45:32 51°27.685 2°46.14 17.8523 4.460942 33.896435 -0.095143
2010-09-07 08:46:32 51°27.465 2°46.204 17.8658 4.45672 33.853915 -0.129967
2010-09-07 08:47:32 51°27.247 2°46.271 17.8733 4.442577 33.725918 0.009329
2010-09-07 08:48:31 51°27.033 2°46.343 17.902 4.433605 33.637176 0.078977
2010-09-07 08:49:32 51°26.813 2°46.419 17.9031 4.431811 33.609418 0.18345
2010-09-07 08:50:32 51°26.598 2°46.512 17.8966 4.428433 33.580166 0.078977
2010-09-07 08:51:32 51°26.385 2°46.62 17.8903 4.426428 33.563749 0.078977
2010-09-07 08:52:32 51°26.172 2°46.729 17.873 4.424634 33.559246 0.044153
2010-09-07 08:53:32 51°25.958 2°46.841 17.8687 4.421362 33.538627 0.078977
2010-09-07 08:54:32 51°25.744 2°46.948 17.8666 4.418935 33.522194 0.078977
2010-09-07 08:55:32 51°25.533 2°47.066 17.8622 4.416191 33.503071 0.113802
2010-09-07 08:56:32 51°25.32 2°47.176 17.8562 4.411653 33.46753 0.078977
2010-09-07 08:57:32 51°25.109 2°47.29 17.8529 4.407431 33.431707 0.044153
2010-09-07 08:58:32 51°24.899 2°47.403 17.8451 4.402787 33.400613 0.044153
2010-09-07 08:59:32 51°24.69 2°47.514 17.8545 4.399621 33.376712 0.009329
2010-09-07 09:00:32 51°24.483 2°47.624 17.8536 4.3916 33.303339 0.078977
2010-09-07 09:01:32 51°24.274 2°47.731 17.8558 4.383262 33.229097 0.18345
2010-09-07 09:02:32 51°24.065 2°47.844 17.8459 4.374503 33.157794 0.218274
2010-09-07 09:03:32 51°23.856 2°47.961 17.833 4.366693 33.099842 0.18345
2010-09-07 09:04:32 51°23.646 2°48.073 17.823 4.360572 33.05032 0.18345
2010-09-07 09:05:32 51°23.437 2°48.191 17.8214 4.358251 33.040038 0.18345
2010-09-07 09:06:32 51°23.224 2°48.303 17.8254 4.358778 33.053321 0.218274
2010-09-07 09:07:32 51°23.003 2°48.353 17.8218 4.355823 33.024161 0.18345
2010-09-07 09:08:32 51°22.783 2°48.328 17.8228 4.355507 33.01913 0.218274
2010-09-07 09:09:32 51°22.57 2°48.22 17.8077 4.355296 33.015581 0.148626
2010-09-07 09:10:32 51°22.347 2°48.186 17.7942 4.350019 32.985522 0.148626
2010-09-07 09:11:32 51°22.128 2°48.22 17.7888 4.34622 32.967973 0.009329
2010-09-07 09:12:32 51°21.923 2°48.351 17.7805 4.345798 32.969672 -0.060319
2010-09-07 09:13:32 51°21.726 2°48.516 17.7787 4.344954 32.974833 -0.060319
2010-09-07 09:14:32 51°21.529 2°48.675 17.7892 4.344954 32.962512 -0.164791
2010-09-07 09:15:32 51°21.334 2°48.828 17.7634 4.33725 32.896605 -0.269263
2010-09-07 09:16:32 51°21.138 2°48.983 17.7467 4.316882 32.746724 -0.234439
2010-09-07 09:17:32 51°20.949 2°49.157 17.7382 4.306435 32.665157 -0.269263
2010-09-07 09:18:32 51°20.765 2°49.334 17.615 4.279631 32.471635 -0.199615
2010-09-07 09:19:32 51°20.577 2°49.508 17.5825 4.237106 32.18494 -0.060319
2010-09-07 09:20:32 51°20.391 2°49.681 17.6067 4.232252 32.155844 -0.025495
2010-09-07 09:21:32 51°20.204 2°49.857 17.5927 4.234784 32.170426 -0.025495
2010-09-07 09:22:32 51°20.017 2°50.034 17.6072 4.231302 32.145489 -0.060319
2010-09-07 09:23:32 51°19.829 2°50.214 17.6248 4.235523 32.171516 -0.060319
2010-09-07 09:24:32 51°19.639 2°50.397 17.6256 4.235312 32.162254 -0.060319
2010-09-07 09:25:32 51°19.45 2°50.581 17.6324 4.237739 32.177084 -0.095143
2010-09-07 09:26:32 51°19.261 2°50.767 17.6221 4.238899 32.186925 -0.060319
2010-09-07 09:27:32 51°19.074 2°50.95 17.5561 4.232252 32.131143 -0.025495
2010-09-07 09:28:32 51°18.886 2°51.124 17.5213 4.198803 31.903648 0.113802
2010-09-07 09:29:32 51°18.691 2°51.286 17.4812 4.188462 31.841618 0.18345
2010-09-07 09:30:32 51°18.496 2°51.446 17.4723 4.1777 31.781642 0.253098
2010-09-07 09:31:32 51°18.303 2°51.613 17.4812 4.175695 31.75779 0.253098
2010-09-07 09:32:32 51°18.109 2°51.777 17.4687 4.168309 31.712176 0.253098
2010-09-07 09:33:32 51°17.915 2°51.942 17.4701 4.172319 31.735397 0.218274
2010-09-07 09:34:32 51°17.724 2°52.109 17.4579 4.166832 31.6985 0.253098
2010-09-07 09:35:32 51°17.535 2°52.28 17.4352 4.165461 31.685153 0.253098
2010-09-07 09:36:32 51°17.35 2°52.467 17.4139 4.159869 31.662121 0.18345
2010-09-07 09:37:32 51°17.169 2°52.661 17.423 4.157864 31.660446 0.253098
2010-09-07 09:38:32 51°16.987 2°52.862 17.4236 4.156387 31.635963 0.287922
2010-09-07 09:39:32 51°16.815 2°53.084 17.4245 4.158603 31.651369 0.253098
2010-09-07 09:40:32 51°16.681 2°53.375 17.4655 4.157864 31.65476 0.218274
2010-09-07 09:41:32 51°16.552 2°53.669 17.4923 4.162084 31.659907 0.148626
2010-09-07 09:42:32 51°16.422 2°53.966 17.5193 4.165355 31.665514 0.113802
2010-09-07 09:43:32 51°16.33 2°54.209 17.5029 4.165143 31.642173 0.078977
2010-09-07 09:44:32 51°16.282 2°54.362 17.5358 4.163561 31.637258 0.044153
2010-09-07 09:45:32 51°16.23 2°54.395 17.5229 4.169153 31.667085 0.113802
2010-09-07 09:46:32 51°16.212 2°54.396 17.5149 4.165671 31.650613 0.078977
2010-09-07 09:47:32 51°16.216 2°54.417 17.5106 4.16546 31.655628 0.113802
2010-09-07 09:48:32 51°16.226 2°54.442 17.5087 4.164932 31.651155 0.113802
2010-09-07 09:49:32 51°16.239 2°54.47 17.5117 4.16757 31.673522 0.113802
2010-09-07 09:50:32 51°16.253 2°54.503 17.5205 4.169364 31.682488 0.148626
2010-09-07 09:51:32 51°16.267 2°54.538 17.5155 4.16968 31.674391 0.148626
2010-09-07 09:52:32 51°16.283 2°54.576 17.516 4.166621 31.655827 0.113802
2010-09-07 09:53:32 51°16.298 2°54.612 17.5145 4.168414 31.676706 0.113802
2010-09-07 09:54:32 51°16.302 2°54.59 17.5289 4.164088 31.649669 0.148626
2010-09-07 09:55:32 51°16.222 2°54.511 17.5664 4.167676 31.661369 0.148626
2010-09-07 09:56:32 51°16.059 2°54.449 17.6123 4.174111 31.677923 0.148626
2010-09-07 09:57:32 51°15.855 2°54.428 17.4764 4.165037 31.594884 0.078977
2010-09-07 09:58:32 51°15.648 2°54.414 17.4564 4.147418 31.533778 0.078977
2010-09-07 09:59:32 51°15.443 2°54.403 17.4671 4.143514 31.509714 0.078977
2010-09-07 10:00:32 51°15.238 2°54.417 17.4693 4.13655 31.428662 0.078977
2010-09-07 10:01:32 51°15.04 2°54.512 17.4757 4.124416 31.340472 0.044153
2010-09-07 10:02:32 51°14.858 2°54.703 17.4391 4.113971 31.259264 0.044153
2010-09-07 10:03:32 51°14.676 2°54.896 17.409 4.109223 31.226323 0.148626
2010-09-07 10:04:32 51°14.496 2°55.084 17.3923 4.092659 31.119524 0.218274
2010-09-07 10:05:32 51°14.316 2°55.243 17.3314 4.084325 31.055577 0.427218
2010-09-07 10:06:32 51°14.15 2°55.392 17.3688 4.052252 30.812694 0.322746
2010-09-07 10:07:32 51°14.006 2°55.498 17.4081 3.957623 29.998354 0.253098
2010-09-07 10:08:32 51°13.897 2°55.58 17.4308 3.890006 29.406953 0.218274
2010-09-07 10:09:31 51°13.804 2°55.658 17.4812 3.884837 29.340856 0.148626
2010-09-07 10:10:31 51°13.732 2°55.767 17.6272 3.780629 28.425549 0.148626
2010-09-07 10:11:31 51°13.682 2°55.885 17.6007 3.46082 25.675756 0.18345
2010-09-07 10:12:31 51°13.663 2°55.958 17.5763 3.608633 26.903526 0.18345
2010-09-07 10:13:31 51°13.662 2°55.96 17.5146 3.691199 27.620161 0.148626